Time;durP1;ratioP1;P1;durP2;ratioP2;P2;SDS_P1;SDS_P2;PMS_P1;PMS_P2;Temp;Humidity;BMP_temperature;BMP_pressure;BME280_temperature;BME280_humidity;BME280_pressure;Samples;Min_cycle;Max_cycle;Signal;HPM_P1;HPM_P2
2021/12/28 00:00:59;;;;;;;16.17;10.40;;;7.70;99.90;;;;;;5029622;28;20246;-73
2021/12/28 00:03:25;;;;;;;14.90;9.80;;;7.60;99.90;;;;;;5038887;28;20478;-73
2021/12/28 00:05:50;;;;;;;17.70;9.87;;;7.70;99.90;;;;;;5054116;28;20454;-74
2021/12/28 00:08:19;;;;;;;15.90;9.70;;;7.60;99.90;;;;;;5051898;28;20223;-73
2021/12/28 00:10:45;;;;;;;16.90;9.57;;;7.70;99.90;;;;;;5064199;28;20255;-73
2021/12/28 00:13:11;;;;;;;13.90;8.50;;;7.70;99.90;;;;;;5059968;28;20455;-73
2021/12/28 00:18:26;;;;;;;15.53;8.87;;;7.70;99.90;;;;;;5031216;28;20220;-72
2021/12/28 00:20:57;;;;;;;13.53;9.10;;;7.70;99.90;;;;;;5047964;28;20804;-73
2021/12/28 00:23:31;;;;;;;15.70;9.77;;;7.70;99.90;;;;;;5069844;28;20470;-73
2021/12/28 00:25:57;;;;;;;12.77;8.10;;;7.70;99.90;;;;;;5065282;28;20504;-75
2021/12/28 00:28:24;;;;;;;12.30;8.37;;;7.70;99.90;;;;;;5068416;28;20454;-73
2021/12/28 00:30:50;;;;;;;12.93;8.50;;;7.70;99.90;;;;;;5065313;28;20450;-74
2021/12/28 00:33:18;;;;;;;18.20;9.43;;;7.70;99.90;;;;;;5066639;28;20457;-73
2021/12/28 00:35:43;;;;;;;13.57;9.70;;;7.70;99.90;;;;;;5066422;28;20457;-73
2021/12/28 00:38:14;;;;;;;14.33;9.20;;;7.70;99.90;;;;;;5064225;28;20507;-73
2021/12/28 00:40:41;;;;;;;13.40;8.13;;;7.70;99.90;;;;;;5069705;28;20330;-73
2021/12/28 00:43:08;;;;;;;11.30;8.27;;;7.70;99.90;;;;;;5064423;28;20452;-72
2021/12/28 00:45:33;;;;;;;11.63;8.60;;;7.70;99.90;;;;;;5066453;28;20461;-73
2021/12/28 00:47:59;;;;;;;9.43;7.23;;;7.70;99.90;;;;;;5048379;28;20468;-73
2021/12/28 00:50:27;;;;;;;14.13;9.40;;;7.70;99.90;;;;;;5071881;28;20230;-74
2021/12/28 00:52:55;;;;;;;11.23;7.80;;;7.70;99.90;;;;;;5052394;28;20215;-74
2021/12/28 00:55:21;;;;;;;11.93;7.20;;;7.70;99.90;;;;;;5077984;28;20456;-73
2021/12/28 00:57:47;;;;;;;10.03;6.43;;;7.70;99.90;;;;;;5067626;28;20539;-74
2021/12/28 01:00:17;;;;;;;9.80;7.23;;;7.70;99.90;;;;;;5069611;28;20452;-74
2021/12/28 01:02:43;;;;;;;10.37;6.50;;;7.70;99.90;;;;;;5067204;28;20493;-73
2021/12/28 01:05:09;;;;;;;11.70;6.93;;;7.70;99.90;;;;;;5064741;28;20493;-73
2021/12/28 01:07:35;;;;;;;15.80;7.37;;;7.70;99.90;;;;;;5066371;28;20594;-72
2021/12/28 01:10:03;;;;;;;16.40;7.03;;;7.80;99.90;;;;;;5070618;28;20464;-73
2021/12/28 01:12:29;;;;;;;9.90;6.00;;;7.70;99.90;;;;;;5069191;28;20226;-74
2021/12/28 01:14:54;;;;;;;9.10;5.97;;;7.80;99.90;;;;;;5067597;28;20537;-74
2021/12/28 01:17:20;;;;;;;8.40;5.87;;;7.80;99.90;;;;;;5086016;28;20218;-73
2021/12/28 01:19:46;;;;;;;8.60;5.17;;;7.80;99.90;;;;;;5065330;28;20302;-73
2021/12/28 01:22:11;;;;;;;4.30;3.83;;;7.80;99.90;;;;;;5058141;28;20227;-73
2021/12/28 01:24:37;;;;;;;7.93;4.93;;;7.80;99.90;;;;;;5046069;28;20247;-73
2021/12/28 01:27:03;;;;;;;6.37;4.40;;;7.80;99.90;;;;;;5027302;28;20223;-74
2021/12/28 01:29:29;;;;;;;8.97;4.63;;;7.90;99.90;;;;;;5045789;28;20248;-74
2021/12/28 01:31:54;;;;;;;20.90;5.00;;;7.90;99.90;;;;;;5043128;28;20224;-74
2021/12/28 01:34:20;;;;;;;6.37;3.80;;;7.90;99.90;;;;;;5046726;28;20242;-74
2021/12/28 01:36:46;;;;;;;8.70;4.03;;;7.90;99.90;;;;;;5041089;28;20274;-73
2021/12/28 01:39:12;;;;;;;13.17;4.47;;;7.90;99.90;;;;;;5009320;28;20223;-73
2021/12/28 01:41:38;;;;;;;5.47;3.70;;;7.90;99.90;;;;;;5025452;28;20459;-73
2021/12/28 01:44:08;;;;;;;13.87;5.17;;;7.90;99.90;;;;;;5004975;28;20525;-73
2021/12/28 01:46:35;;;;;;;12.17;3.03;;;7.90;99.90;;;;;;5030329;28;20231;-74
2021/12/28 01:49:03;;;;;;;6.07;3.50;;;8.00;99.90;;;;;;5030941;28;20513;-74
2021/12/28 01:51:28;;;;;;;4.53;3.07;;;8.00;99.90;;;;;;5047346;28;20485;-73
2021/12/28 01:53:57;;;;;;;5.80;3.20;;;8.00;99.90;;;;;;5032728;28;20482;-74
2021/12/28 01:56:30;;;;;;;8.60;3.90;;;8.00;99.90;;;;;;5033368;28;20274;-73
2021/12/28 01:58:56;;;;;;;4.93;3.10;;;8.00;99.90;;;;;;5015407;28;20497;-74
2021/12/28 02:01:23;;;;;;;3.87;2.60;;;8.00;99.90;;;;;;5033094;28;20824;-73
2021/12/28 02:03:49;;;;;;;7.17;3.00;;;8.00;99.90;;;;;;5032443;28;20509;-74
2021/12/28 02:06:16;;;;;;;4.43;2.27;;;8.00;99.90;;;;;;5032165;28;20479;-73
2021/12/28 02:08:42;;;;;;;5.17;3.20;;;8.00;99.90;;;;;;5015685;28;20455;-73
2021/12/28 02:11:10;;;;;;;11.60;4.10;;;8.10;99.90;;;;;;5032506;28;20450;-72
2021/12/28 02:13:36;;;;;;;9.90;3.10;;;8.10;99.90;;;;;;5032252;28;20459;-73
2021/12/28 02:16:02;;;;;;;5.80;2.70;;;8.10;99.90;;;;;;5015249;28;20517;-73
2021/12/28 02:18:29;;;;;;;6.77;4.07;;;8.10;99.90;;;;;;5028847;28;20220;-73
2021/12/28 02:20:57;;;;;;;10.63;3.27;;;8.20;99.90;;;;;;5042011;28;20779;-72
2021/12/28 02:23:23;;;;;;;10.37;2.87;;;8.10;99.90;;;;;;5085025;28;20579;-74
2021/12/28 02:25:49;;;;;;;9.30;3.67;;;8.20;99.90;;;;;;5091653;28;20487;-74
2021/12/28 02:28:16;;;;;;;5.00;2.97;;;8.10;99.90;;;;;;5092587;28;20440;-73
2021/12/28 02:30:44;;;;;;;8.33;4.70;;;8.10;99.90;;;;;;5092323;28;20495;-73
2021/12/28 02:33:10;;;;;;;11.53;3.63;;;8.20;99.90;;;;;;5051649;28;20682;-73
2021/12/28 02:35:37;;;;;;;8.00;3.27;;;8.20;99.90;;;;;;5043351;28;20478;-72
2021/12/28 02:38:05;;;;;;;12.03;3.63;;;8.20;99.90;;;;;;5039961;28;20299;-74
2021/12/28 02:40:32;;;;;;;8.37;4.90;;;8.10;99.90;;;;;;5037743;28;20451;-74
2021/12/28 02:43:00;;;;;;;7.20;4.23;;;8.20;99.90;;;;;;5031262;28;20447;-74
2021/12/28 02:45:34;;;;;;;3.77;3.30;;;8.20;99.90;;;;;;5031892;28;20553;-71
2021/12/28 02:48:02;;;;;;;6.20;3.77;;;8.20;99.90;;;;;;5031624;28;20470;-73
2021/12/28 02:50:35;;;;;;;8.87;3.57;;;8.20;99.90;;;;;;5059765;28;20999;-72
2021/12/28 02:53:00;;;;;;;10.50;3.60;;;8.20;99.90;;;;;;5084904;28;20895;-73
2021/12/28 02:55:30;;;;;;;9.03;4.57;;;8.20;99.90;;;;;;5041547;28;20480;-71
2021/12/28 02:57:57;;;;;;;6.43;3.97;;;8.20;99.90;;;;;;5034794;28;20281;-74
2021/12/28 03:00:43;;;;;;;9.90;3.93;;;8.20;99.90;;;;;;5041425;28;20463;-73
2021/12/28 03:03:19;;;;;;;11.43;5.67;;;8.20;99.90;;;;;;5061900;28;20442;-73
2021/12/28 03:05:49;;;;;;;13.00;5.50;;;8.20;99.90;;;;;;5072720;28;20487;-74
2021/12/28 03:08:18;;;;;;;9.00;3.90;;;8.20;99.90;;;;;;5070667;28;20503;-74
2021/12/28 03:10:45;;;;;;;7.60;4.10;;;8.20;99.90;;;;;;5061041;28;20450;-73
2021/12/28 03:13:18;;;;;;;10.30;4.20;;;8.20;99.90;;;;;;5033984;28;20473;-74
2021/12/28 03:15:44;;;;;;;5.93;3.57;;;8.20;99.90;;;;;;5048414;28;20468;-73
2021/12/28 03:18:10;;;;;;;5.67;3.07;;;8.20;99.90;;;;;;5040831;28;20443;-74
2021/12/28 03:20:35;;;;;;;7.67;3.80;;;8.20;99.90;;;;;;5034605;28;20680;-73
2021/12/28 03:23:01;;;;;;;3.73;3.10;;;8.20;99.90;;;;;;5033765;28;20600;-74
2021/12/28 03:25:27;;;;;;;6.63;3.80;;;8.20;99.90;;;;;;5034656;28;20208;-72
2021/12/28 03:27:53;;;;;;;10.63;3.50;;;8.20;99.90;;;;;;5034185;28;20254;-74
2021/12/28 03:30:19;;;;;;;5.90;3.30;;;8.20;99.90;;;;;;5051307;28;20231;-74
2021/12/28 03:32:45;;;;;;;4.80;3.60;;;8.20;99.90;;;;;;5034168;28;20709;-74
2021/12/28 03:35:12;;;;;;;8.10;3.50;;;8.30;99.90;;;;;;5051664;28;20466;-74
2021/12/28 03:37:39;;;;;;;7.03;4.43;;;8.30;99.90;;;;;;5034748;28;20462;-74
2021/12/28 03:40:07;;;;;;;5.60;4.20;;;8.30;99.90;;;;;;5051750;28;20455;-75
2021/12/28 03:42:33;;;;;;;4.60;3.07;;;8.30;99.90;;;;;;5050778;28;20447;-74
2021/12/28 03:44:59;;;;;;;5.13;3.57;;;8.30;99.90;;;;;;5033429;28;20463;-74
2021/12/28 03:47:25;;;;;;;8.53;3.80;;;8.30;99.90;;;;;;5050968;28;20462;-74
2021/12/28 03:49:51;;;;;;;4.90;3.63;;;8.30;99.90;;;;;;5050293;28;20216;-74
2021/12/28 03:52:16;;;;;;;4.97;3.70;;;8.30;99.90;;;;;;5046995;28;20211;-74
2021/12/28 03:54:42;;;;;;;4.47;3.43;;;8.30;99.90;;;;;;5050579;28;20704;-74
2021/12/28 03:57:08;;;;;;;5.60;3.60;;;8.30;99.90;;;;;;5030125;28;20217;-74
2021/12/28 03:59:34;;;;;;;7.33;3.87;;;8.30;99.90;;;;;;5033620;28;20249;-73
2021/12/28 04:01:59;;;;;;;13.10;4.40;;;8.30;99.90;;;;;;5058450;28;20238;-74
2021/12/28 04:04:25;;;;;;;7.43;4.33;;;8.30;99.90;;;;;;5049396;28;20232;-72
2021/12/28 04:06:51;;;;;;;10.40;3.70;;;8.30;99.90;;;;;;5033691;28;20231;-74
2021/12/28 04:09:23;;;;;;;3.70;3.07;;;8.30;99.90;;;;;;5041458;28;20630;-74
2021/12/28 04:11:49;;;;;;;4.07;3.30;;;8.30;99.90;;;;;;5050046;28;20227;-74
2021/12/28 04:14:15;;;;;;;5.50;3.17;;;8.30;99.90;;;;;;5069611;28;20449;-74
2021/12/28 04:16:42;;;;;;;4.13;3.20;;;8.30;99.90;;;;;;5053272;28;20458;-74
2021/12/28 04:19:08;;;;;;;7.77;3.00;;;8.40;99.90;;;;;;5052954;28;20242;-74
2021/12/28 04:21:35;;;;;;;8.13;3.87;;;8.40;99.90;;;;;;5066229;28;20458;-74
2021/12/28 04:24:01;;;;;;;5.70;3.60;;;8.40;99.90;;;;;;5052815;28;20252;-74
2021/12/28 04:26:28;;;;;;;7.17;3.03;;;8.40;99.90;;;;;;5068089;28;20450;-74
2021/12/28 04:28:54;;;;;;;8.13;3.40;;;8.40;99.90;;;;;;5052645;28;20445;-74
2021/12/28 04:31:21;;;;;;;3.67;2.50;;;8.40;99.90;;;;;;5069860;28;20445;-74
2021/12/28 04:33:47;;;;;;;5.40;3.53;;;8.40;99.90;;;;;;5071325;28;20532;-74
2021/12/28 04:36:14;;;;;;;8.63;3.10;;;8.40;99.90;;;;;;5052726;28;20936;-74
2021/12/28 04:38:42;;;;;;;3.70;3.30;;;8.40;99.90;;;;;;5070256;28;20227;-74
2021/12/28 04:41:09;;;;;;;8.07;2.60;;;8.40;99.90;;;;;;5069228;28;20453;-72
2021/12/28 04:43:35;;;;;;;7.80;3.47;;;8.40;99.90;;;;;;5068438;28;21052;-74
2021/12/28 04:46:00;;;;;;;7.53;3.10;;;8.40;99.90;;;;;;5052070;28;20445;-74
2021/12/28 04:48:27;;;;;;;5.03;2.97;;;8.40;99.90;;;;;;5069870;28;20464;-74
2021/12/28 04:50:52;;;;;;;5.37;2.13;;;8.40;99.90;;;;;;5067197;28;20208;-74
2021/12/28 04:53:18;;;;;;;5.30;3.20;;;8.40;99.90;;;;;;5065950;28;20506;-74
2021/12/28 04:55:46;;;;;;;7.13;2.87;;;8.40;99.90;;;;;;5052532;28;20444;-74
2021/12/28 04:58:13;;;;;;;7.73;2.73;;;8.40;99.90;;;;;;5070250;28;20534;-74
2021/12/28 05:00:40;;;;;;;5.90;2.80;;;8.40;99.90;;;;;;5069391;28;20984;-74
2021/12/28 05:03:06;;;;;;;5.23;2.70;;;8.40;99.90;;;;;;5051445;28;20441;-74
2021/12/28 05:05:33;;;;;;;9.40;3.33;;;8.40;99.90;;;;;;5069063;28;20462;-74
2021/12/28 05:07:59;;;;;;;6.90;3.07;;;8.40;99.90;;;;;;5069043;28;21082;-75
2021/12/28 05:10:24;;;;;;;8.83;2.80;;;8.40;99.90;;;;;;5052478;28;20557;-74
2021/12/28 05:12:50;;;;;;;3.70;2.73;;;8.40;99.90;;;;;;5067983;28;20309;-74
2021/12/28 05:15:17;;;;;;;4.20;2.43;;;8.40;99.90;;;;;;5052196;28;20227;-74
2021/12/28 05:17:43;;;;;;;5.77;3.30;;;8.40;99.90;;;;;;5070716;28;20468;-74
2021/12/28 05:20:09;;;;;;;2.73;2.47;;;8.40;99.90;;;;;;5069695;28;20526;-74
2021/12/28 05:22:35;;;;;;;4.73;3.07;;;8.40;99.90;;;;;;5051173;28;20981;-74
2021/12/28 05:25:01;;;;;;;8.53;2.80;;;8.40;99.90;;;;;;5069681;28;20523;-74
2021/12/28 05:27:27;;;;;;;13.77;2.50;;;8.40;99.90;;;;;;5066286;28;20223;-74
2021/12/28 05:29:53;;;;;;;6.53;2.77;;;8.40;99.90;;;;;;5068722;28;20453;-74
2021/12/28 05:32:18;;;;;;;7.00;2.33;;;8.40;99.90;;;;;;5065346;28;20230;-74
2021/12/28 05:34:44;;;;;;;5.93;2.07;;;8.40;99.90;;;;;;5049375;28;20223;-73
2021/12/28 05:37:10;;;;;;;3.00;1.97;;;8.40;99.90;;;;;;5065199;28;20215;-74
2021/12/28 05:39:36;;;;;;;6.80;2.60;;;8.40;99.90;;;;;;5066264;28;20229;-73
2021/12/28 05:42:03;;;;;;;4.83;2.17;;;8.40;99.90;;;;;;5064103;28;20458;-74
2021/12/28 05:44:29;;;;;;;7.37;2.67;;;8.40;99.90;;;;;;5065645;28;21001;-73
2021/12/28 05:46:55;;;;;;;4.73;2.10;;;8.40;99.90;;;;;;5063954;28;20457;-74
2021/12/28 05:49:22;;;;;;;4.27;2.50;;;8.40;99.90;;;;;;5054183;28;20218;-74
2021/12/28 05:51:48;;;;;;;4.77;2.27;;;8.40;99.90;;;;;;5055762;28;20458;-74
2021/12/28 05:54:14;;;;;;;6.53;1.77;;;8.40;99.90;;;;;;5063156;28;20449;-74
2021/12/28 05:56:41;;;;;;;4.03;2.07;;;8.40;99.90;;;;;;5049054;28;20318;-73
2021/12/28 05:59:07;;;;;;;4.93;2.50;;;8.40;99.90;;;;;;5064509;28;20460;-74
2021/12/28 06:01:33;;;;;;;6.37;2.40;;;8.40;99.90;;;;;;5046771;28;20524;-74
2021/12/28 06:03:59;;;;;;;2.70;1.93;;;8.40;99.90;;;;;;5062112;28;20311;-74
2021/12/28 06:06:24;;;;;;;2.63;2.33;;;8.40;99.90;;;;;;5048616;28;20557;-74
2021/12/28 06:08:51;;;;;;;3.53;2.33;;;8.40;99.90;;;;;;5064790;28;20449;-74
2021/12/28 06:11:17;;;;;;;3.67;1.87;;;8.40;99.90;;;;;;5061490;28;20211;-74
2021/12/28 06:13:43;;;;;;;3.30;2.10;;;8.40;99.90;;;;;;5066632;28;20483;-74
2021/12/28 06:16:10;;;;;;;3.80;2.07;;;8.40;99.90;;;;;;5063762;28;20461;-74
2021/12/28 06:18:36;;;;;;;3.80;2.27;;;8.40;99.90;;;;;;5061371;28;20240;-74
2021/12/28 06:21:02;;;;;;;7.50;2.43;;;8.40;99.90;;;;;;5063373;28;20495;-73
2021/12/28 06:23:28;;;;;;;7.10;2.60;;;8.40;99.90;;;;;;5049587;28;21016;-74
2021/12/28 06:25:53;;;;;;;7.27;1.90;;;8.40;99.90;;;;;;5063760;28;20450;-74
2021/12/28 06:28:19;;;;;;;4.40;1.80;;;8.40;99.90;;;;;;5065390;28;20234;-74
2021/12/28 06:30:45;;;;;;;4.73;2.23;;;8.50;99.90;;;;;;5058522;28;20216;-74
2021/12/28 06:33:11;;;;;;;2.60;1.90;;;8.40;99.90;;;;;;5045536;28;20277;-74
2021/12/28 06:35:36;;;;;;;3.27;2.20;;;8.50;99.90;;;;;;5065138;28;20230;-73
2021/12/28 06:38:02;;;;;;;3.77;2.40;;;8.40;99.90;;;;;;5063593;28;20730;-75
2021/12/28 06:40:28;;;;;;;2.83;2.03;;;8.50;99.90;;;;;;5047359;28;20211;-73
2021/12/28 06:42:54;;;;;;;2.60;2.13;;;8.40;99.90;;;;;;5063109;28;20219;-74
2021/12/28 06:45:20;;;;;;;7.03;2.20;;;8.40;99.90;;;;;;5068764;28;20322;-74
2021/12/28 06:47:46;;;;;;;10.70;2.77;;;8.40;99.90;;;;;;5069231;28;20489;-74
2021/12/28 06:50:12;;;;;;;3.47;1.93;;;8.40;99.90;;;;;;5069702;28;20211;-74
2021/12/28 06:52:39;;;;;;;2.90;1.90;;;8.40;99.90;;;;;;5067481;28;20548;-74
2021/12/28 06:55:06;;;;;;;8.77;2.40;;;8.40;99.90;;;;;;5050325;28;20484;-74
2021/12/28 06:57:32;;;;;;;3.93;2.13;;;8.40;99.90;;;;;;5069208;28;20481;-74
2021/12/28 06:59:58;;;;;;;9.50;2.60;;;8.40;99.90;;;;;;5068373;28;21055;-74
2021/12/28 07:02:24;;;;;;;7.10;2.20;;;8.40;99.90;;;;;;5068854;28;20219;-74
2021/12/28 07:04:52;;;;;;;3.90;2.13;;;8.40;99.90;;;;;;5068544;28;20484;-74
2021/12/28 07:07:18;;;;;;;4.10;1.90;;;8.40;99.90;;;;;;5063293;28;20504;-74
2021/12/28 07:09:44;;;;;;;5.70;1.87;;;8.40;99.90;;;;;;5068118;28;20485;-74
2021/12/28 07:12:10;;;;;;;2.60;1.70;;;8.40;99.90;;;;;;5067168;28;20578;-74
2021/12/28 07:14:36;;;;;;;2.00;1.70;;;8.40;99.90;;;;;;5067889;28;20219;-74
2021/12/28 07:17:02;;;;;;;2.30;1.77;;;8.40;99.90;;;;;;5049971;28;20549;-74
2021/12/28 07:19:28;;;;;;;4.53;2.00;;;8.40;99.90;;;;;;5064363;28;20888;-74
2021/12/28 07:21:54;;;;;;;2.30;2.10;;;8.40;99.90;;;;;;5061945;28;20553;-74
2021/12/28 07:24:20;;;;;;;2.53;2.30;;;8.40;99.90;;;;;;5066466;28;20314;-74
2021/12/28 07:26:45;;;;;;;5.80;2.70;;;8.40;99.90;;;;;;5069860;28;20909;-74
2021/12/28 07:29:12;;;;;;;9.33;2.60;;;8.40;99.90;;;;;;5068199;28;20294;-75
2021/12/28 07:31:38;;;;;;;4.73;2.93;;;8.40;99.90;;;;;;5067407;28;20753;-72
2021/12/28 07:34:04;;;;;;;7.20;4.10;;;8.40;99.90;;;;;;5065930;28;20477;-74
2021/12/28 07:36:30;;;;;;;11.93;5.70;;;8.50;99.90;;;;;;5068211;28;20485;-73
2021/12/28 07:38:56;;;;;;;7.00;4.77;;;8.50;99.90;;;;;;5066207;28;20268;-73
2021/12/28 07:41:22;;;;;;;7.80;5.20;;;8.50;99.90;;;;;;5067901;28;20215;-73
2021/12/28 07:43:48;;;;;;;6.90;4.37;;;8.40;99.90;;;;;;5067369;28;20625;-74
2021/12/28 07:46:14;;;;;;;8.37;4.03;;;8.50;99.90;;;;;;5067070;28;20519;-74
2021/12/28 07:48:41;;;;;;;8.43;3.57;;;8.40;99.90;;;;;;5068233;28;20219;-73
2021/12/28 07:51:07;;;;;;;5.23;3.70;;;8.50;99.90;;;;;;5063006;28;20480;-73
2021/12/28 07:53:33;;;;;;;7.00;4.47;;;8.40;99.90;;;;;;5050273;28;20481;-74
2021/12/28 07:55:59;;;;;;;8.07;4.47;;;8.50;99.90;;;;;;5049441;28;20991;-74
2021/12/28 07:58:26;;;;;;;5.77;3.33;;;8.50;99.90;;;;;;5068026;28;20504;-73
2021/12/28 08:00:51;;;;;;;4.33;2.90;;;8.50;99.90;;;;;;5067496;28;20453;-73
2021/12/28 08:03:19;;;;;;;3.17;2.40;;;8.50;99.90;;;;;;5064744;28;20464;-74
2021/12/28 08:05:45;;;;;;;3.77;2.97;;;8.50;99.90;;;;;;5067926;28;20239;-74
2021/12/28 08:08:11;;;;;;;5.10;3.13;;;8.50;99.90;;;;;;5066474;28;20522;-74
2021/12/28 08:10:37;;;;;;;5.03;2.70;;;8.50;99.90;;;;;;5069125;28;21000;-71
2021/12/28 08:13:03;;;;;;;5.80;3.30;;;8.50;99.90;;;;;;5040996;28;20215;-73
2021/12/28 08:15:29;;;;;;;3.40;2.50;;;8.50;99.90;;;;;;5053883;28;20470;-71
2021/12/28 08:17:54;;;;;;;3.73;2.60;;;8.50;99.90;;;;;;5029066;28;20462;-72
2021/12/28 08:20:20;;;;;;;3.40;2.70;;;8.50;99.90;;;;;;5046686;28;20269;-74
2021/12/28 08:22:47;;;;;;;3.23;2.10;;;8.50;99.90;;;;;;5036324;28;20215;-74
2021/12/28 08:25:17;;;;;;;3.10;2.37;;;8.50;99.90;;;;;;5066942;28;20470;-74
2021/12/28 08:27:43;;;;;;;2.20;2.00;;;8.50;99.90;;;;;;5039376;28;20478;-74
2021/12/28 08:30:11;;;;;;;3.37;2.30;;;8.50;99.90;;;;;;5029637;28;20457;-74
2021/12/28 08:32:37;;;;;;;2.23;1.67;;;8.60;99.90;;;;;;5072361;28;20462;-74
2021/12/28 08:35:04;;;;;;;2.30;2.03;;;8.50;99.90;;;;;;5030509;28;21037;-74
2021/12/28 08:37:30;;;;;;;6.10;2.13;;;8.60;99.90;;;;;;5021768;28;20315;-74
2021/12/28 08:39:56;;;;;;;1.90;1.67;;;8.60;99.90;;;;;;5036100;28;20485;-72
2021/12/28 08:42:22;;;;;;;2.13;1.80;;;8.50;99.90;;;;;;5049097;28;20965;-73
2021/12/28 08:44:48;;;;;;;2.03;1.83;;;8.50;99.90;;;;;;5068987;28;20773;-73
2021/12/28 08:47:14;;;;;;;1.80;1.60;;;8.50;99.90;;;;;;5043252;28;20458;-74
2021/12/28 08:49:40;;;;;;;2.20;1.97;;;8.50;99.90;;;;;;5044818;28;20481;-74
2021/12/28 08:52:06;;;;;;;1.60;1.50;;;8.60;99.90;;;;;;5038446;28;20821;-74
2021/12/28 08:54:32;;;;;;;1.97;1.70;;;8.50;99.90;;;;;;5046783;28;20222;-74
2021/12/28 08:56:58;;;;;;;1.70;1.60;;;8.50;99.90;;;;;;5044772;28;20463;-75
2021/12/28 08:59:24;;;;;;;2.40;1.30;;;8.50;99.90;;;;;;5078105;28;20509;-74
2021/12/28 09:01:50;;;;;;;2.67;1.47;;;8.60;99.90;;;;;;5028674;28;20224;-75
2021/12/28 09:04:17;;;;;;;1.67;1.30;;;8.60;99.90;;;;;;5078664;28;20247;-74
2021/12/28 09:06:45;;;;;;;1.63;1.50;;;8.60;99.90;;;;;;5068904;28;20230;-74
2021/12/28 09:09:11;;;;;;;2.70;1.87;;;8.60;99.90;;;;;;5082992;28;20527;-74
2021/12/28 09:11:37;;;;;;;2.50;1.73;;;8.60;99.90;;;;;;5042587;28;20481;-73
2021/12/28 09:14:03;;;;;;;1.70;1.47;;;8.60;99.90;;;;;;5053047;28;20459;-74
2021/12/28 09:16:29;;;;;;;1.50;1.40;;;8.60;99.90;;;;;;5046261;28;20450;-73
2021/12/28 09:18:55;;;;;;;1.50;1.40;;;8.60;99.90;;;;;;5040076;28;20465;-75
2021/12/28 09:21:21;;;;;;;2.90;1.97;;;8.60;99.90;;;;;;5045642;28;20454;-74
2021/12/28 09:23:47;;;;;;;1.90;1.70;;;8.60;99.90;;;;;;5046572;28;20308;-74
2021/12/28 09:26:13;;;;;;;2.47;2.13;;;8.60;99.90;;;;;;5055860;28;20464;-74
2021/12/28 09:28:39;;;;;;;4.00;2.07;;;8.70;99.90;;;;;;5052130;28;20549;-74
2021/12/28 09:31:05;;;;;;;6.10;2.87;;;8.70;99.90;;;;;;5044452;28;20223;-74
2021/12/28 09:33:31;;;;;;;4.53;3.10;;;8.70;99.90;;;;;;5044227;28;20211;-74
2021/12/28 09:35:57;;;;;;;3.67;2.53;;;8.70;99.90;;;;;;5044406;28;20509;-75
2021/12/28 09:38:23;;;;;;;4.30;2.63;;;8.70;99.90;;;;;;5029927;28;20238;-74
2021/12/28 09:40:50;;;;;;;3.70;2.67;;;8.70;99.90;;;;;;5028051;28;20478;-74
2021/12/28 09:43:17;;;;;;;1.90;1.50;;;8.70;99.90;;;;;;5047156;28;20216;-74
2021/12/28 09:45:43;;;;;;;3.60;2.43;;;8.70;99.90;;;;;;5053886;28;20465;-74
2021/12/28 09:48:10;;;;;;;2.50;1.83;;;8.70;99.90;;;;;;5045501;28;20970;-74
2021/12/28 09:50:39;;;;;;;2.80;1.77;;;8.80;99.90;;;;;;5042617;28;20800;-74
2021/12/28 09:53:06;;;;;;;1.63;1.53;;;8.80;99.90;;;;;;5046029;28;20491;-74
2021/12/28 09:55:33;;;;;;;2.70;1.53;;;8.80;99.90;;;;;;5033723;28;20566;-73
2021/12/28 09:57:59;;;;;;;2.90;1.50;;;8.80;99.90;;;;;;5034637;28;20450;-74
2021/12/28 10:00:26;;;;;;;2.23;1.73;;;8.80;99.90;;;;;;5053652;28;20550;-73
2021/12/28 10:02:53;;;;;;;2.30;1.90;;;8.90;99.90;;;;;;5038967;28;20489;-75
2021/12/28 10:05:23;;;;;;;1.80;1.50;;;8.90;99.90;;;;;;5026117;28;20482;-74
2021/12/28 10:07:57;;;;;;;1.63;1.33;;;8.90;99.90;;;;;;5038238;28;20849;-75
2021/12/28 10:10:34;;;;;;;1.60;1.50;;;9.00;99.90;;;;;;5080760;28;20457;-74
2021/12/28 10:13:05;;;;;;;3.40;1.83;;;9.00;99.90;;;;;;5023971;28;20459;-75
2021/12/28 10:15:33;;;;;;;1.30;1.20;;;9.00;99.90;;;;;;5012156;28;21057;-73
2021/12/28 10:18:03;;;;;;;7.73;5.07;;;9.10;99.90;;;;;;5046383;28;20453;-74
2021/12/28 10:20:30;;;;;;;25.33;14.83;;;9.10;99.90;;;;;;5058416;28;20527;-75
2021/12/28 10:22:59;;;;;;;31.90;17.87;;;9.10;99.90;;;;;;5042628;28;20455;-75
2021/12/28 10:25:35;;;;;;;15.33;12.87;;;9.20;99.90;;;;;;5038618;28;20474;-74
2021/12/28 10:28:07;;;;;;;10.97;9.87;;;9.20;99.90;;;;;;5047850;28;20461;-75
2021/12/28 10:30:51;;;;;;;9.97;8.43;;;9.30;99.90;;;;;;5049511;28;20469;-74
2021/12/28 10:33:21;;;;;;;9.37;8.37;;;9.30;99.90;;;;;;5045024;28;20450;-74
2021/12/28 10:35:57;;;;;;;8.50;7.70;;;9.30;99.90;;;;;;5023827;28;20482;-74
2021/12/28 10:38:32;;;;;;;8.40;7.60;;;9.30;99.90;;;;;;5049195;28;20487;-75
2021/12/28 10:41:19;;;;;;;7.23;6.50;;;9.40;99.90;;;;;;5048379;28;20454;-72
2021/12/28 10:43:51;;;;;;;5.40;4.90;;;9.40;99.90;;;;;;5053175;28;20481;-73
2021/12/28 10:46:20;;;;;;;5.13;4.63;;;9.40;99.90;;;;;;5044480;28;20839;-74
2021/12/28 10:49:04;;;;;;;4.27;3.97;;;9.50;99.90;;;;;;5069728;28;20456;-74
2021/12/28 10:51:41;;;;;;;14.33;9.00;;;9.40;99.90;;;;;;5043444;28;20453;-74
2021/12/28 10:54:12;;;;;;;22.03;13.77;;;9.50;99.90;;;;;;5074089;28;20456;-74
2021/12/28 10:56:49;;;;;;;18.27;11.87;;;9.50;99.90;;;;;;5049570;28;20460;-75
2021/12/28 10:59:22;;;;;;;14.60;10.17;;;9.60;99.90;;;;;;5053373;28;20452;-74
2021/12/28 11:01:48;;;;;;;11.43;8.40;;;9.60;99.90;;;;;;5064959;28;20455;-73
2021/12/28 11:04:15;;;;;;;11.30;6.80;;;9.60;99.90;;;;;;5088770;28;20460;-74
2021/12/28 11:06:45;;;;;;;8.63;5.70;;;9.60;99.90;;;;;;5080154;28;20462;-74
2021/12/28 11:09:16;;;;;;;5.70;4.43;;;9.60;99.90;;;;;;5065577;28;20455;-74
2021/12/28 11:11:42;;;;;;;4.43;3.73;;;9.70;99.90;;;;;;5060853;28;20462;-74
2021/12/28 11:14:11;;;;;;;3.23;2.93;;;9.70;99.90;;;;;;5040554;28;20544;-74
2021/12/28 11:16:37;;;;;;;3.80;3.00;;;9.70;99.90;;;;;;5044248;28;20227;-73
2021/12/28 11:19:06;;;;;;;4.27;2.70;;;9.80;99.90;;;;;;5046367;28;20582;-75
2021/12/28 11:21:38;;;;;;;2.93;2.73;;;9.80;99.90;;;;;;5031383;28;20458;-75
2021/12/28 11:24:10;;;;;;;2.50;2.30;;;9.80;99.90;;;;;;5056684;28;20488;-74
2021/12/28 11:26:37;;;;;;;5.20;3.67;;;9.90;99.90;;;;;;5041089;28;20463;-74
2021/12/28 11:29:11;;;;;;;7.73;5.43;;;10.00;99.90;;;;;;5058858;28;20457;-74
2021/12/28 11:31:38;;;;;;;18.23;9.23;;;10.10;99.90;;;;;;5049652;28;20462;-75
2021/12/28 11:34:08;;;;;;;42.80;17.73;;;10.20;99.90;;;;;;5034623;28;20466;-74
2021/12/28 11:36:38;;;;;;;41.00;19.10;;;10.20;99.90;;;;;;5016646;28;20578;-74
2021/12/28 11:39:08;;;;;;;34.23;17.07;;;10.30;99.90;;;;;;5056017;28;20469;-74
2021/12/28 11:41:34;;;;;;;21.63;10.60;;;10.30;99.90;;;;;;5042123;28;20458;-74
2021/12/28 11:44:01;;;;;;;11.17;6.17;;;10.40;99.90;;;;;;5058041;28;20459;-75
2021/12/28 11:46:28;;;;;;;8.20;4.47;;;10.40;99.90;;;;;;5013881;28;20505;-75
2021/12/28 11:48:53;;;;;;;3.97;3.20;;;10.50;99.90;;;;;;5058710;28;20505;-74
2021/12/28 11:51:20;;;;;;;4.83;2.90;;;10.50;99.90;;;;;;5066859;28;20462;-75
2021/12/28 11:53:47;;;;;;;2.60;2.40;;;10.60;99.90;;;;;;5048650;28;20224;-74
2021/12/28 11:56:17;;;;;;;2.00;1.87;;;10.60;99.90;;;;;;5050230;28;20470;-75
2021/12/28 11:58:53;;;;;;;1.50;1.40;;;10.60;99.90;;;;;;5047493;28;20549;-75
2021/12/28 12:01:53;;;;;;;1.77;1.67;;;10.60;99.90;;;;;;5043880;28;20526;-74
2021/12/28 12:04:33;;;;;;;1.30;1.20;;;10.60;99.90;;;;;;5017957;28;20503;-74
2021/12/28 12:07:16;;;;;;;1.10;1.00;;;10.60;99.90;;;;;;5033086;28;20450;-74
2021/12/28 12:09:53;;;;;;;1.27;1.10;;;10.60;99.90;;;;;;5046253;28;20451;-73
2021/12/28 12:12:22;;;;;;;2.20;1.30;;;10.70;99.90;;;;;;5073578;28;20505;-75
2021/12/28 12:14:51;;;;;;;2.97;1.67;;;10.70;99.90;;;;;;5036238;28;20458;-74
2021/12/28 12:17:28;;;;;;;1.53;1.40;;;10.70;99.90;;;;;;5045257;28;20554;-75
2021/12/28 12:20:22;;;;;;;2.67;1.50;;;10.70;99.90;;;;;;5029401;28;20540;-75
2021/12/28 12:22:55;;;;;;;2.10;1.60;;;10.70;99.90;;;;;;5047444;28;20458;-75
2021/12/28 12:25:32;;;;;;;1.37;1.27;;;10.80;99.90;;;;;;5051288;28;20471;-75
2021/12/28 12:28:05;;;;;;;1.53;1.43;;;10.70;99.90;;;;;;5048312;28;20478;-74
2021/12/28 12:30:33;;;;;;;5.50;4.97;;;10.70;99.90;;;;;;5039373;28;20458;-75
2021/12/28 12:33:05;;;;;;;22.07;14.00;;;10.70;99.90;;;;;;5049427;28;20857;-74
2021/12/28 12:35:40;;;;;;;32.17;18.77;;;10.70;99.90;;;;;;5053468;28;20467;-72
2021/12/28 12:38:15;;;;;;;24.63;16.40;;;10.70;99.90;;;;;;5061444;28;20470;-72
2021/12/28 12:41:03;;;;;;;21.30;12.73;;;10.70;99.90;;;;;;5033173;28;20458;-74
2021/12/28 12:43:40;;;;;;;18.17;11.50;;;10.70;99.90;;;;;;5026681;28;20459;-75
2021/12/28 12:46:16;;;;;;;19.43;11.83;;;10.70;99.90;;;;;;5040497;28;20820;-73
2021/12/28 12:48:42;;;;;;;16.50;10.27;;;10.70;99.90;;;;;;5049846;28;20453;-74
2021/12/28 12:51:22;;;;;;;15.97;10.27;;;10.70;99.90;;;;;;5065266;28;20458;-74
2021/12/28 12:54:03;;;;;;;12.90;9.10;;;10.70;99.90;;;;;;5037414;28;20219;-72
2021/12/28 12:56:36;;;;;;;6.17;5.53;;;10.70;99.90;;;;;;5060006;28;20462;-74
2021/12/28 12:59:06;;;;;;;4.67;3.70;;;10.70;99.90;;;;;;5034647;28;20458;-73